Time;durP1;ratioP1;P1;durP2;ratioP2;P2;SDS_P1;SDS_P2;PMS_P1;PMS_P2;Temp;Humidity;BMP_temperature;BMP_pressure;BME280_temperature;BME280_humidity;BME280_pressure;Samples;Min_cycle;Max_cycle;Signal;HPM_P1;HPM_P2
2021/09/27 00:00:16;;;;;;;6.68;3.15;;;16.40;94.00;;;;;;4963358;28;20150;-61
2021/09/27 00:02:43;;;;;;;;;;;16.40;94.20;;;;;;4963495;28;20589;-61
2021/09/27 00:05:12;;;;;;;5.97;3.10;;;16.40;94.40;;;;;;4963688;28;19964;-62
2021/09/27 00:07:40;;;;;;;4.22;2.95;;;16.40;94.00;;;;;;4963049;28;20092;-61
2021/09/27 00:10:07;;;;;;;7.97;3.58;;;16.50;94.40;;;;;;4963429;28;20106;-61
2021/09/27 00:12:37;;;;;;;8.70;4.60;;;16.50;94.10;;;;;;4963294;28;20082;-61
2021/09/27 00:15:07;;;;;;;5.43;3.55;;;16.50;94.00;;;;;;4962383;28;20285;-61
2021/09/27 00:17:34;;;;;;;6.55;3.63;;;16.50;93.90;;;;;;4960786;28;20082;-61
2021/09/27 00:20:01;;;;;;;6.55;3.88;;;16.50;93.90;;;;;;4963712;28;20130;-61
2021/09/27 00:22:28;;;;;;;6.70;3.85;;;16.60;94.00;;;;;;4962952;28;20130;-61
2021/09/27 00:24:55;;;;;;;7.38;4.32;;;16.60;93.80;;;;;;4950393;28;20087;-61
2021/09/27 00:27:22;;;;;;;8.15;3.83;;;16.60;93.80;;;;;;4949815;28;20522;-61
2021/09/27 00:29:49;;;;;;;8.15;3.28;;;16.60;94.10;;;;;;4963066;28;20149;-61
2021/09/27 00:32:15;;;;;;;7.38;2.92;;;16.60;93.70;;;;;;4962373;28;20061;-61
2021/09/27 00:34:42;;;;;;;4.80;3.40;;;16.60;93.80;;;;;;4962954;28;20697;-61
2021/09/27 00:37:09;;;;;;;8.18;3.85;;;16.60;93.80;;;;;;4962842;28;20461;-62
2021/09/27 00:39:36;;;;;;;3.78;2.92;;;16.60;93.80;;;;;;4963385;28;20141;-62
2021/09/27 00:42:03;;;;;;;6.25;3.75;;;16.70;93.90;;;;;;4961991;28;20054;-61
2021/09/27 00:44:29;;;;;;;11.07;3.67;;;16.70;94.00;;;;;;4962497;28;20062;-61
2021/09/27 00:46:56;;;;;;;7.57;3.88;;;16.70;93.60;;;;;;4961233;28;20511;-61
2021/09/27 00:49:23;;;;;;;5.95;3.60;;;16.70;93.70;;;;;;4963687;28;20953;-61
2021/09/27 00:51:49;;;;;;;5.20;3.53;;;16.70;93.90;;;;;;4962381;28;20082;-62
2021/09/27 00:54:20;;;;;;;7.10;3.28;;;16.70;93.80;;;;;;4961708;28;20078;-61
2021/09/27 00:56:52;;;;;;;5.20;3.47;;;16.80;93.90;;;;;;4961468;28;20134;-62
2021/09/27 00:59:20;;;;;;;5.55;3.28;;;16.80;93.70;;;;;;4961042;28;20144;-61
2021/09/27 01:01:47;;;;;;;3.50;2.88;;;16.80;93.70;;;;;;4960825;28;20542;-61
2021/09/27 01:04:14;;;;;;;7.97;3.00;;;16.80;93.70;;;;;;4962251;28;20074;-62
2021/09/27 01:07:19;;;;;;;8.10;3.22;;;16.90;93.60;;;;;;4962302;28;20125;-61
2021/09/27 01:10:08;;;;;;;5.57;2.97;;;16.90;93.90;;;;;;4963948;28;20134;-62
2021/09/27 01:13:28;;;;;;;6.30;2.92;;;16.90;93.80;;;;;;4965246;28;20130;-61
2021/09/27 01:16:22;;;;;;;6.47;3.50;;;17.00;93.70;;;;;;4982721;28;20090;-61
2021/09/27 01:19:01;;;;;;;8.25;3.80;;;17.00;93.60;;;;;;4964304;28;20442;-62
2021/09/27 01:21:56;;;;;;;5.95;2.95;;;17.10;93.40;;;;;;4965964;28;20125;-61
2021/09/27 01:25:01;;;;;;;5.45;3.08;;;17.00;93.50;;;;;;4964914;28;20097;-61
2021/09/27 01:27:58;;;;;;;6.78;2.50;;;17.10;93.50;;;;;;4965968;28;20093;-62
2021/09/27 01:30:31;;;;;;;4.47;2.70;;;17.10;93.50;;;;;;4965291;28;20167;-61
2021/09/27 01:33:02;;;;;;;6.90;2.78;;;17.10;93.20;;;;;;4982273;28;20672;-61
2021/09/27 01:35:30;;;;;;;5.35;2.97;;;17.20;93.30;;;;;;4947481;28;20086;-61
2021/09/27 01:38:12;;;;;;;7.07;2.72;;;17.10;93.30;;;;;;4947423;29;20282;-61
2021/09/27 01:41:06;;;;;;;5.20;3.30;;;17.20;93.30;;;;;;4949157;29;20078;-61
2021/09/27 01:43:49;;;;;;;6.50;2.30;;;17.20;93.30;;;;;;4959597;28;20586;-61
2021/09/27 01:46:34;;;;;;;5.22;2.97;;;17.20;93.20;;;;;;4966508;28;20082;-61
2021/09/27 01:49:32;;;;;;;5.85;2.92;;;17.20;93.40;;;;;;4968440;28;20597;-61
2021/09/27 01:52:19;;;;;;;7.32;3.33;;;17.20;93.00;;;;;;4981302;28;20467;-61
2021/09/27 01:54:51;;;;;;;7.78;2.72;;;17.20;93.40;;;;;;4966779;28;20055;-61
2021/09/27 01:57:26;;;;;;;5.50;2.15;;;17.20;93.20;;;;;;4966693;28;20446;-61
2021/09/27 02:00:16;;;;;;;13.20;3.80;;;17.20;93.30;;;;;;4966120;28;20078;-61
2021/09/27 02:03:09;;;;;;;9.18;2.83;;;17.20;93.40;;;;;;4966409;28;20078;-61
2021/09/27 02:05:55;;;;;;;5.63;2.35;;;17.20;93.30;;;;;;4975798;28;20074;-61
2021/09/27 02:08:23;;;;;;;6.18;3.95;;;17.20;93.30;;;;;;4965674;28;20150;-61
2021/09/27 02:10:52;;;;;;;7.03;2.60;;;17.20;93.20;;;;;;4966385;28;20355;-61
2021/09/27 02:13:26;;;;;;;8.13;2.47;;;17.20;93.30;;;;;;4965216;28;20082;-61
2021/09/27 02:16:10;;;;;;;9.05;2.47;;;17.20;93.30;;;;;;4966012;28;20078;-61
2021/09/27 02:18:59;;;;;;;6.97;2.60;;;17.20;93.40;;;;;;4950973;28;20058;-61
2021/09/27 02:21:32;;;;;;;6.50;3.53;;;17.20;93.40;;;;;;4965661;28;20120;-61
2021/09/27 02:24:32;;;;;;;8.85;3.85;;;17.20;93.30;;;;;;4966043;28;20684;-61
2021/09/27 02:27:01;;;;;;;5.35;3.15;;;17.20;93.10;;;;;;4981397;28;20077;-61
2021/09/27 02:29:29;;;;;;;4.68;2.45;;;17.20;93.20;;;;;;4966672;28;20082;-61
2021/09/27 02:32:07;;;;;;;7.78;3.03;;;17.30;93.00;;;;;;4965370;28;20883;-61
2021/09/27 02:34:56;;;;;;;6.88;2.72;;;17.30;93.10;;;;;;4966056;28;20142;-61
2021/09/27 02:37:51;;;;;;;8.35;2.83;;;17.40;93.10;;;;;;4965410;28;20143;-61
2021/09/27 02:40:32;;;;;;;7.38;2.60;;;17.40;93.10;;;;;;4966189;28;20108;-62
2021/09/27 02:43:00;;;;;;;6.65;2.60;;;17.50;92.90;;;;;;4966089;28;20467;-61
2021/09/27 02:45:28;;;;;;;6.78;2.53;;;17.50;92.80;;;;;;4965605;28;20146;-61
2021/09/27 02:48:00;;;;;;;5.18;2.30;;;17.50;92.60;;;;;;4964166;28;20142;-61
2021/09/27 02:50:29;;;;;;;6.90;2.00;;;17.60;92.60;;;;;;4965533;28;20134;-61
2021/09/27 02:52:56;;;;;;;5.72;2.75;;;17.60;92.50;;;;;;4966059;28;20074;-61
2021/09/27 02:55:31;;;;;;;3.72;2.25;;;17.70;92.50;;;;;;4966852;28;20142;-61
2021/09/27 02:58:16;;;;;;;6.28;2.30;;;17.70;92.40;;;;;;4964748;28;20082;-61
2021/09/27 03:01:12;;;;;;;6.47;2.42;;;17.70;92.40;;;;;;4965483;28;20145;-60
2021/09/27 03:04:05;;;;;;;7.10;2.28;;;17.70;92.30;;;;;;4964586;28;20138;-61
2021/09/27 03:06:35;;;;;;;6.13;2.67;;;17.70;92.30;;;;;;4964852;28;20082;-61
2021/09/27 03:09:35;;;;;;;6.45;2.28;;;17.70;92.20;;;;;;4965491;28;20335;-62
2021/09/27 03:12:21;;;;;;;6.90;2.50;;;17.80;92.60;;;;;;4966600;28;20086;-61
2021/09/27 03:15:09;;;;;;;5.05;2.92;;;17.70;92.90;;;;;;4965906;28;20089;-62
2021/09/27 03:17:40;;;;;;;7.07;2.40;;;17.60;93.40;;;;;;4965931;28;20161;-61
2021/09/27 03:20:32;;;;;;;6.85;2.67;;;17.50;93.30;;;;;;4965428;28;20056;-61
2021/09/27 03:23:06;;;;;;;5.35;2.40;;;17.50;93.80;;;;;;4964396;28;20135;-61
2021/09/27 03:25:40;;;;;;;5.43;2.08;;;17.40;93.40;;;;;;4965084;28;20137;-61
2021/09/27 03:28:16;;;;;;;4.50;2.05;;;17.40;93.50;;;;;;4948567;28;20074;-61
2021/09/27 03:30:53;;;;;;;3.65;1.80;;;17.30;93.70;;;;;;4966609;28;20081;-61
2021/09/27 03:33:59;;;;;;;3.38;1.77;;;17.30;93.90;;;;;;4963415;28;20051;-61
2021/09/27 03:36:56;;;;;;;8.88;2.13;;;17.30;94.10;;;;;;4965986;28;20484;-61
2021/09/27 03:39:38;;;;;;;9.27;2.30;;;17.30;94.00;;;;;;4965990;28;20177;-62
2021/09/27 03:42:10;;;;;;;5.90;2.35;;;17.30;93.80;;;;;;4965815;28;20055;-61
2021/09/27 03:44:39;;;;;;;6.88;2.35;;;17.30;93.90;;;;;;4963587;28;20138;-61
2021/09/27 03:47:27;;;;;;;6.65;2.33;;;17.30;93.70;;;;;;4963995;28;20109;-61
2021/09/27 03:49:58;;;;;;;5.43;2.28;;;17.40;93.80;;;;;;4965267;28;20138;-61
2021/09/27 03:52:30;;;;;;;4.07;2.08;;;17.40;93.70;;;;;;4964022;28;20138;-61
2021/09/27 03:55:24;;;;;;;15.90;3.65;;;17.40;93.70;;;;;;4964406;28;20126;-61
2021/09/27 03:58:06;;;;;;;7.10;2.33;;;17.50;93.80;;;;;;4964649;28;20086;-61
2021/09/27 04:00:37;;;;;;;5.05;2.10;;;17.50;93.60;;;;;;4965074;28;20074;-62
2021/09/27 04:03:13;;;;;;;9.07;2.38;;;17.50;93.40;;;;;;4963579;28;20057;-61
2021/09/27 04:06:28;;;;;;;8.73;2.67;;;17.50;93.60;;;;;;4965795;28;20047;-61
2021/09/27 04:09:08;;;;;;;12.68;3.38;;;17.50;93.60;;;;;;4979954;28;20144;-61
2021/09/27 04:11:42;;;;;;;6.38;2.00;;;17.50;93.40;;;;;;4965595;28;20462;-61
2021/09/27 04:14:39;;;;;;;8.00;2.60;;;17.50;93.30;;;;;;4963660;28;20249;-61
2021/09/27 04:17:34;;;;;;;6.18;2.47;;;17.50;93.30;;;;;;4963438;28;20138;-61
2021/09/27 04:20:21;;;;;;;7.18;2.15;;;17.50;93.10;;;;;;4965999;28;20086;-61
2021/09/27 04:23:05;;;;;;;11.07;2.83;;;17.50;93.10;;;;;;4964002;28;20125;-61
2021/09/27 04:26:04;;;;;;;4.10;1.75;;;17.60;93.10;;;;;;4965591;28;20475;-61
2021/09/27 04:28:50;;;;;;;6.60;2.10;;;17.60;93.10;;;;;;4961768;28;20067;-61
2021/09/27 04:31:27;;;;;;;8.27;2.30;;;17.60;92.80;;;;;;4964935;28;20082;-61
2021/09/27 04:34:11;;;;;;;6.10;2.33;;;17.50;92.70;;;;;;4964712;28;20047;-61
2021/09/27 04:36:40;;;;;;;6.30;2.65;;;17.50;92.80;;;;;;4963579;28;20142;-61
2021/09/27 04:39:10;;;;;;;5.80;1.98;;;17.50;92.80;;;;;;4964160;28;20082;-60
2021/09/27 04:41:36;;;;;;;5.60;2.10;;;17.50;92.80;;;;;;4964011;28;20133;-62
2021/09/27 04:44:40;;;;;;;5.05;2.15;;;17.50;92.70;;;;;;4965331;28;20570;-61
2021/09/27 04:47:33;;;;;;;4.20;2.00;;;17.50;92.80;;;;;;4967611;28;20134;-61
2021/09/27 04:50:21;;;;;;;10.80;1.90;;;17.50;92.70;;;;;;4968179;28;20050;-61
2021/09/27 04:52:48;;;;;;;7.25;2.20;;;17.50;92.70;;;;;;4968456;28;20081;-61
2021/09/27 04:55:51;;;;;;;6.38;1.55;;;17.50;92.60;;;;;;4968337;28;20622;-61
2021/09/27 04:58:45;;;;;;;7.45;1.95;;;17.50;92.70;;;;;;4967723;28;20082;-61
2021/09/27 05:01:28;;;;;;;10.50;2.20;;;17.50;92.70;;;;;;4967022;28;20101;-61
2021/09/27 05:04:18;;;;;;;4.82;1.90;;;17.50;92.70;;;;;;4964116;28;20066;-61
2021/09/27 05:07:04;;;;;;;8.63;2.50;;;17.50;92.70;;;;;;4960060;28;20086;-61
2021/09/27 05:09:38;;;;;;;7.70;1.92;;;17.50;92.70;;;;;;4963206;28;20082;-62
2021/09/27 05:12:29;;;;;;;7.57;2.00;;;17.50;92.70;;;;;;4963904;28;20114;-61
2021/09/27 05:15:19;;;;;;;6.25;2.28;;;17.50;92.80;;;;;;4962522;28;20082;-62
2021/09/27 05:17:58;;;;;;;8.70;4.35;;;17.50;92.90;;;;;;4947982;28;20255;-61
2021/09/27 05:20:51;;;;;;;6.70;2.15;;;17.50;92.70;;;;;;4962835;28;20626;-61
2021/09/27 05:23:35;;;;;;;5.82;2.60;;;17.50;92.80;;;;;;4961105;28;20498;-61
2021/09/27 05:26:33;;;;;;;5.15;1.88;;;17.50;92.70;;;;;;4964632;28;20137;-61
2021/09/27 05:29:06;;;;;;;6.72;3.30;;;17.50;92.80;;;;;;4961548;28;20488;-61
2021/09/27 05:32:04;;;;;;;6.28;2.28;;;17.50;92.80;;;;;;4961387;28;20269;-61
2021/09/27 05:34:31;;;;;;;11.43;2.90;;;17.50;92.80;;;;;;4960598;28;20077;-61
2021/09/27 05:37:26;;;;;;;5.53;2.30;;;17.50;92.80;;;;;;4961977;28;20101;-61
2021/09/27 05:40:18;;;;;;;7.72;2.22;;;17.60;93.20;;;;;;4957297;28;20134;-61
2021/09/27 05:43:23;;;;;;;6.40;3.30;;;17.50;94.00;;;;;;4946873;28;20466;-61
2021/09/27 05:46:05;;;;;;;8.57;2.83;;;17.40;94.40;;;;;;4954594;28;20498;-61
2021/09/27 05:48:53;;;;;;;11.73;2.97;;;17.30;94.20;;;;;;4954530;28;20051;-61
2021/09/27 05:51:29;;;;;;;8.98;2.35;;;17.30;94.70;;;;;;4943401;28;20523;-62
2021/09/27 05:54:06;;;;;;;8.27;2.22;;;17.30;94.80;;;;;;4956268;28;20158;-62
2021/09/27 05:56:52;;;;;;;5.55;2.10;;;17.30;94.80;;;;;;4967988;28;20132;-61
2021/09/27 05:59:35;;;;;;;9.40;3.05;;;17.20;94.70;;;;;;4941077;29;20154;-62
2021/09/27 06:02:09;;;;;;;11.55;2.58;;;17.20;94.90;;;;;;4943191;28;20147;-61
2021/09/27 06:04:48;;;;;;;19.77;3.33;;;17.20;95.00;;;;;;4958714;28;20470;-61
2021/09/27 06:07:20;;;;;;;8.82;3.33;;;17.20;95.20;;;;;;4949623;28;20081;-61
2021/09/27 06:10:14;;;;;;;12.43;3.08;;;17.20;95.20;;;;;;4949874;28;20235;-63
2021/09/27 06:12:49;;;;;;;7.95;3.15;;;17.20;95.80;;;;;;4947132;28;20267;-63
2021/09/27 06:15:16;;;;;;;8.00;2.75;;;17.10;95.50;;;;;;4934954;29;20565;-63
2021/09/27 06:18:31;;;;;;;6.25;2.63;;;17.10;95.40;;;;;;4949175;28;20082;-64
2021/09/27 06:21:10;;;;;;;9.02;2.47;;;17.10;96.30;;;;;;4954959;28;20426;-65
2021/09/27 06:23:48;;;;;;;8.10;2.28;;;17.00;96.10;;;;;;4959700;28;20146;-65
2021/09/27 06:26:15;;;;;;;6.85;2.50;;;17.00;95.80;;;;;;4961408;28;20293;-65
2021/09/27 06:28:51;;;;;;;4.05;2.05;;;17.00;96.40;;;;;;4959186;28;20702;-65
2021/09/27 06:31:45;;;;;;;7.55;3.00;;;17.00;95.90;;;;;;4961309;28;20086;-64
2021/09/27 06:34:40;;;;;;;8.25;2.58;;;16.90;96.20;;;;;;4961676;28;20145;-66
2021/09/27 06:37:06;;;;;;;5.20;2.30;;;16.90;96.10;;;;;;4960826;28;20062;-65
2021/09/27 06:39:33;;;;;;;6.03;2.55;;;16.90;96.30;;;;;;4959961;28;20106;-61
2021/09/27 06:42:01;;;;;;;10.63;2.85;;;16.80;96.40;;;;;;4959875;28;20154;-64
2021/09/27 06:44:28;;;;;;;5.05;2.00;;;16.80;97.00;;;;;;4960000;28;20101;-66
2021/09/27 06:46:55;;;;;;;17.20;3.17;;;16.80;96.70;;;;;;4960838;28;20471;-67
2021/09/27 06:49:22;;;;;;;7.80;2.50;;;16.80;97.20;;;;;;4961821;28;20078;-67
2021/09/27 06:51:49;;;;;;;8.10;2.50;;;16.70;97.00;;;;;;4959286;28;20078;-66
2021/09/27 06:54:17;;;;;;;4.97;2.15;;;16.70;97.00;;;;;;4959482;28;20074;-66
2021/09/27 06:56:45;;;;;;;3.33;1.42;;;16.70;97.10;;;;;;4959929;28;20125;-66
2021/09/27 06:59:13;;;;;;;2.90;1.42;;;16.70;97.20;;;;;;4959715;28;20132;-66
2021/09/27 07:01:40;;;;;;;2.38;1.40;;;16.70;97.50;;;;;;4959535;28;20568;-66
2021/09/27 07:04:07;;;;;;;4.47;1.30;;;16.70;97.30;;;;;;4959064;28;20082;-65
2021/09/27 07:06:34;;;;;;;2.00;1.30;;;16.70;97.30;;;;;;4959860;28;20536;-67
2021/09/27 07:09:01;;;;;;;4.30;1.63;;;16.70;97.50;;;;;;4961162;28;20046;-67
2021/09/27 07:11:28;;;;;;;2.67;1.23;;;16.70;97.40;;;;;;4959379;28;20418;-67
2021/09/27 07:13:55;;;;;;;2.13;1.08;;;16.70;97.80;;;;;;4960172;28;20486;-66
2021/09/27 07:16:22;;;;;;;3.15;1.02;;;16.70;97.70;;;;;;4959037;28;20140;-65
2021/09/27 07:19:06;;;;;;;3.53;1.45;;;16.70;97.50;;;;;;4959714;28;20051;-66
2021/09/27 07:21:34;;;;;;;2.80;1.25;;;16.80;97.70;;;;;;4959073;28;20078;-65
2021/09/27 07:24:04;;;;;;;4.82;1.60;;;16.80;97.40;;;;;;4975506;28;20082;-65
2021/09/27 07:26:31;;;;;;;4.53;1.70;;;16.90;97.50;;;;;;4943792;28;20105;-66
2021/09/27 07:28:59;;;;;;;3.17;1.55;;;16.90;97.20;;;;;;4952925;28;20092;-67
2021/09/27 07:31:28;;;;;;;5.88;2.72;;;16.80;97.30;;;;;;4952448;28;20153;-67
2021/09/27 07:33:55;;;;;;;4.75;1.80;;;16.90;97.30;;;;;;4943076;28;20138;-68
2021/09/27 07:36:22;;;;;;;3.03;1.70;;;16.90;97.40;;;;;;4958668;28;20451;-67
2021/09/27 07:38:49;;;;;;;6.82;2.00;;;16.90;97.30;;;;;;4939958;29;20145;-67
2021/09/27 07:41:16;;;;;;;7.70;2.35;;;16.90;97.80;;;;;;4953839;28;20074;-68
2021/09/27 07:43:43;;;;;;;3.38;1.25;;;16.90;97.50;;;;;;4956789;28;20174;-67
2021/09/27 07:46:09;;;;;;;6.75;1.50;;;16.90;97.40;;;;;;4949199;28;20566;-67
2021/09/27 07:48:36;;;;;;;5.05;1.75;;;16.90;97.50;;;;;;4956797;28;20070;-67
2021/09/27 07:51:03;;;;;;;5.18;1.20;;;16.90;97.60;;;;;;4959239;28;20169;-66
2021/09/27 07:53:30;;;;;;;6.03;1.17;;;16.80;97.60;;;;;;4959877;28;20046;-65
2021/09/27 07:55:57;;;;;;;2.72;1.35;;;16.80;97.80;;;;;;4960050;28;20062;-65
2021/09/27 07:58:24;;;;;;;6.43;1.70;;;16.80;97.90;;;;;;4945248;28;20142;-66
2021/09/27 08:00:52;;;;;;;5.45;1.38;;;16.80;97.80;;;;;;4941019;28;20174;-66
2021/09/27 08:03:19;;;;;;;4.85;1.40;;;16.80;97.80;;;;;;4947461;28;20055;-66
2021/09/27 08:05:46;;;;;;;1.58;0.90;;;16.80;97.90;;;;;;4959331;28;20561;-66
2021/09/27 08:08:13;;;;;;;6.35;1.80;;;16.80;97.80;;;;;;4945832;28;20083;-65
2021/09/27 08:10:40;;;;;;;4.32;1.75;;;16.80;97.60;;;;;;4952048;28;20150;-66
2021/09/27 08:13:07;;;;;;;4.93;1.80;;;16.90;97.30;;;;;;4942562;28;20051;-65
2021/09/27 08:15:36;;;;;;;6.40;2.13;;;17.00;97.10;;;;;;4956025;28;20121;-65
2021/09/27 08:18:04;;;;;;;7.85;1.95;;;17.00;97.50;;;;;;4959572;28;20043;-64
2021/09/27 08:20:36;;;;;;;8.10;2.10;;;17.10;96.90;;;;;;4962304;28;20282;-67
2021/09/27 08:23:03;;;;;;;9.50;1.92;;;17.10;96.70;;;;;;4961251;28;20547;-66
2021/09/27 08:25:30;;;;;;;6.63;1.92;;;17.10;96.40;;;;;;4955392;28;20145;-66
2021/09/27 08:27:57;;;;;;;7.70;1.58;;;17.10;96.60;;;;;;4955424;28;20926;-65
2021/09/27 08:30:28;;;;;;;1.77;0.68;;;16.30;95.10;;;;;;4954820;28;20241;-64
2021/09/27 08:32:55;;;;;;;1.55;0.63;;;15.30;96.40;;;;;;4961855;28;20340;-65
2021/09/27 08:35:21;;;;;;;3.22;0.98;;;14.70;96.60;;;;;;4963194;28;20538;-65
2021/09/27 08:37:48;;;;;;;4.03;0.90;;;14.50;97.40;;;;;;4959386;28;20176;-65
2021/09/27 08:40:45;;;;;;;3.45;0.75;;;14.30;98.50;;;;;;4947021;28;20122;-65
2021/09/27 08:43:27;;;;;;;1.20;0.40;;;14.20;97.90;;;;;;4978924;28;20990;-65
2021/09/27 08:45:54;;;;;;;2.38;0.60;;;14.10;97.70;;;;;;4961563;28;20145;-65
2021/09/27 08:48:23;;;;;;;3.15;0.73;;;14.10;97.60;;;;;;4960915;28;20061;-65
2021/09/27 08:50:50;;;;;;;0.90;0.60;;;14.10;97.40;;;;;;4961219;28;20494;-65
2021/09/27 08:53:25;;;;;;;3.13;0.60;;;14.00;97.10;;;;;;4961437;28;20710;-63
2021/09/27 08:55:53;;;;;;;1.40;0.75;;;14.00;97.30;;;;;;4963364;28;20193;-63
2021/09/27 08:58:48;;;;;;;1.85;0.73;;;13.90;97.40;;;;;;4946805;28;20134;-63
2021/09/27 09:01:24;;;;;;;2.95;0.60;;;14.00;96.60;;;;;;4957527;28;20101;-62
2021/09/27 09:03:55;;;;;;;1.90;0.55;;;13.90;96.00;;;;;;4956579;28;20051;-63
2021/09/27 09:06:25;;;;;;;2.17;0.88;;;14.00;96.60;;;;;;4926456;29;20134;-62
2021/09/27 09:08:56;;;;;;;3.30;1.15;;;14.00;95.30;;;;;;4956869;28;20078;-64
2021/09/27 09:11:53;;;;;;;1.00;0.30;;;14.00;95.50;;;;;;4942089;28;20120;-64
2021/09/27 09:14:42;;;;;;;1.25;0.60;;;13.90;95.30;;;;;;4951544;28;20505;-62
2021/09/27 09:17:43;;;;;;;0.80;0.50;;;13.80;94.10;;;;;;4960098;28;20055;-62
2021/09/27 09:20:15;;;;;;;1.45;0.50;;;13.80;94.30;;;;;;4972400;28;20050;-62
2021/09/27 09:22:43;;;;;;;1.17;0.90;;;13.70;94.30;;;;;;4959148;28;20126;-62
2021/09/27 09:25:20;;;;;;;1.55;0.60;;;13.80;92.80;;;;;;4959121;28;20055;-62
2021/09/27 09:27:47;;;;;;;0.80;0.55;;;13.80;93.20;;;;;;4958867;28;20053;-62
2021/09/27 09:30:14;;;;;;;0.93;0.50;;;13.90;94.30;;;;;;4958166;28;20070;-62
2021/09/27 09:32:41;;;;;;;16.70;0.98;;;14.00;91.90;;;;;;4956824;28;20073;-61
2021/09/27 09:35:20;;;;;;;2.13;0.70;;;14.10;93.30;;;;;;4962297;28;20086;-62
2021/09/27 09:38:01;;;;;;;0.60;0.30;;;14.10;90.80;;;;;;4960141;28;20057;-61
2021/09/27 09:40:33;;;;;;;1.02;0.60;;;14.10;91.00;;;;;;4962428;28;20335;-62
2021/09/27 09:43:25;;;;;;;1.17;0.50;;;14.30;91.60;;;;;;4961347;28;20232;-62
2021/09/27 09:46:04;;;;;;;1.48;0.50;;;14.40;91.00;;;;;;4962980;28;20093;-61
2021/09/27 09:48:31;;;;;;;0.68;0.50;;;14.50;91.00;;;;;;4961005;28;20069;-62
2021/09/27 09:51:00;;;;;;;1.15;0.60;;;14.60;90.50;;;;;;4962798;28;20101;-62
2021/09/27 09:53:30;;;;;;;4.75;1.40;;;14.60;90.00;;;;;;4960700;28;20070;-62
2021/09/27 09:56:05;;;;;;;0.88;0.50;;;14.70;89.60;;;;;;4961769;28;20117;-62
2021/09/27 09:58:46;;;;;;;1.92;0.50;;;14.70;88.40;;;;;;4960791;28;20086;-62
2021/09/27 10:01:30;;;;;;;3.10;0.50;;;14.80;88.60;;;;;;4962693;28;20055;-61
2021/09/27 10:04:03;;;;;;;0.50;0.30;;;14.90;90.30;;;;;;4959792;28;20054;-62
2021/09/27 10:06:43;;;;;;;1.15;0.35;;;15.10;87.00;;;;;;4962818;28;20050;-62
2021/09/27 10:09:46;;;;;;;0.57;0.40;;;15.20;88.90;;;;;;4961859;28;20442;-62
2021/09/27 10:12:14;;;;;;;6.25;1.15;;;15.30;86.40;;;;;;4965047;28;20090;-62
2021/09/27 10:14:44;;;;;;;0.65;0.40;;;15.30;84.40;;;;;;4963097;28;20054;-62
2021/09/27 10:17:31;;;;;;;1.63;0.57;;;15.30;83.90;;;;;;4965780;28;20109;-62
2021/09/27 10:20:18;;;;;;;1.38;0.52;;;15.40;82.70;;;;;;4966901;28;20112;-62
2021/09/27 10:22:56;;;;;;;2.42;1.02;;;15.40;79.90;;;;;;4964700;28;20328;-61
2021/09/27 10:25:38;;;;;;;2.55;0.75;;;15.30;80.20;;;;;;4964197;28;20058;-62
2021/09/27 10:28:08;;;;;;;2.47;0.40;;;15.30;79.80;;;;;;4963430;28;20138;-62
2021/09/27 10:30:40;;;;;;;1.02;0.50;;;15.30;80.40;;;;;;4963906;28;20125;-61
2021/09/27 10:33:14;;;;;;;6.10;0.60;;;15.40;80.50;;;;;;4959619;28;20523;-61
2021/09/27 10:36:07;;;;;;;0.90;0.50;;;15.40;78.30;;;;;;4946686;28;20230;-61
2021/09/27 10:38:42;;;;;;;1.85;0.47;;;15.40;78.10;;;;;;4965954;28;20141;-61
2021/09/27 10:41:18;;;;;;;1.63;0.52;;;15.50;77.00;;;;;;4960965;28;20341;-61
2021/09/27 10:43:46;;;;;;;1.10;0.60;;;15.40;73.50;;;;;;4959948;28;20081;-61
2021/09/27 10:46:13;;;;;;;1.33;0.57;;;15.40;75.50;;;;;;4959443;28;20066;-60
2021/09/27 10:48:42;;;;;;;1.17;0.60;;;15.40;74.30;;;;;;4943810;28;20055;-61
2021/09/27 10:51:10;;;;;;;0.73;0.57;;;15.50;75.70;;;;;;4944575;28;20164;-62
2021/09/27 10:53:53;;;;;;;1.63;0.82;;;15.50;76.30;;;;;;4927131;28;20050;-62
2021/09/27 10:56:37;;;;;;;1.00;0.60;;;15.60;72.70;;;;;;4961004;28;20058;-61
2021/09/27 10:59:06;;;;;;;0.60;0.40;;;15.70;73.00;;;;;;4958393;28;20078;-62
2021/09/27 11:01:52;;;;;;;2.38;0.45;;;15.80;71.50;;;;;;4943658;28;20141;-62
2021/09/27 11:04:29;;;;;;;1.63;0.63;;;15.80;70.50;;;;;;4942467;28;20063;-61
2021/09/27 11:07:01;;;;;;;2.20;0.70;;;15.90;67.90;;;;;;4957974;28;20055;-62
2021/09/27 11:09:31;;;;;;;0.82;0.35;;;15.90;69.00;;;;;;4943063;28;20089;-62
2021/09/27 11:12:08;;;;;;;2.30;0.52;;;16.10;69.70;;;;;;4959064;28;20968;-62
2021/09/27 11:14:51;;;;;;;2.17;0.40;;;16.20;69.00;;;;;;4959638;28;20382;-62
2021/09/27 11:17:41;;;;;;;1.10;0.60;;;16.20;68.10;;;;;;4947997;28;20190;-62
2021/09/27 11:20:16;;;;;;;1.75;0.95;;;16.20;68.90;;;;;;4935436;29;20047;-61
2021/09/27 11:23:04;;;;;;;0.90;0.80;;;16.00;69.00;;;;;;4934542;29;20134;-61
2021/09/27 11:25:35;;;;;;;2.08;0.80;;;16.00;69.00;;;;;;4932705;29;20054;-62
2021/09/27 11:28:03;;;;;;;2.08;0.75;;;16.20;70.00;;;;;;4926267;28;20094;-61
2021/09/27 11:31:04;;;;;;;1.58;0.93;;;16.50;70.80;;;;;;4930864;29;20146;-62
2021/09/27 11:33:30;;;;;;;4.88;1.00;;;16.60;66.50;;;;;;4923146;29;20051;-62
2021/09/27 11:36:22;;;;;;;0.65;0.50;;;16.70;69.50;;;;;;4924979;28;20515;-62
2021/09/27 11:39:15;;;;;;;2.13;1.10;;;16.60;67.10;;;;;;4933606;29;20169;-62
2021/09/27 11:42:02;;;;;;;2.15;0.70;;;16.70;65.70;;;;;;4939180;28;20154;-62
2021/09/27 11:44:31;;;;;;;3.38;0.60;;;17.00;67.50;;;;;;4933815;29;20166;-62
2021/09/27 11:47:09;;;;;;;2.67;0.70;;;17.40;65.10;;;;;;4938909;29;20101;-62
2021/09/27 11:50:13;;;;;;;2.90;0.90;;;17.40;66.20;;;;;;4927745;29;20051;-62
2021/09/27 11:53:09;;;;;;;2.17;0.80;;;17.70;63.40;;;;;;4934326;28;20360;-62
2021/09/27 11:55:38;;;;;;;0.82;0.40;;;17.60;62.90;;;;;;4937369;29;20058;-62
2021/09/27 11:58:13;;;;;;;1.83;0.70;;;17.40;65.90;;;;;;4935724;29;20083;-62
2021/09/27 12:01:05;;;;;;;4.75;1.00;;;17.40;65.40;;;;;;4937276;29;20055;-62
2021/09/27 12:03:53;;;;;;;1.35;0.60;;;17.50;64.60;;;;;;4936333;28;20058;-62
2021/09/27 12:06:32;;;;;;;1.90;0.90;;;17.70;66.20;;;;;;4930713;29;20143;-62
2021/09/27 12:09:04;;;;;;;1.95;0.82;;;17.90;65.60;;;;;;4907491;29;20126;-62
2021/09/27 12:11:37;;;;;;;1.67;0.80;;;17.90;65.50;;;;;;4936654;28;20134;-62
2021/09/27 12:14:04;;;;;;;3.20;0.77;;;17.70;64.10;;;;;;4930023;29;20500;-62
2021/09/27 12:16:39;;;;;;;1.27;0.70;;;17.70;64.10;;;;;;4937649;28;20170;-62
2021/09/27 12:19:22;;;;;;;6.25;1.17;;;17.90;64.90;;;;;;4922729;29;20074;-62
2021/09/27 12:21:54;;;;;;;1.75;0.90;;;17.70;63.00;;;;;;4935817;29;20074;-62
2021/09/27 12:24:31;;;;;;;2.95;0.77;;;17.50;62.80;;;;;;4932799;28;20177;-62
2021/09/27 12:27:21;;;;;;;3.58;0.75;;;17.50;64.00;;;;;;4935311;29;20440;-63
2021/09/27 12:29:57;;;;;;;0.90;0.47;;;17.70;62.70;;;;;;4921665;29;20147;-62
2021/09/27 12:32:55;;;;;;;2.20;0.63;;;17.80;62.60;;;;;;4938843;28;20452;-62
2021/09/27 12:35:27;;;;;;;1.65;0.90;;;17.70;61.80;;;;;;4935090;29;20910;-62
2021/09/27 12:37:54;;;;;;;1.63;0.50;;;17.70;62.80;;;;;;4939078;28;20090;-62
2021/09/27 12:40:24;;;;;;;1.77;0.65;;;18.20;61.10;;;;;;4938198;28;20126;-62
2021/09/27 12:42:53;;;;;;;1.33;0.65;;;18.40;62.10;;;;;;4938033;29;20055;-62
2021/09/27 12:45:36;;;;;;;2.42;0.57;;;18.30;61.40;;;;;;4938303;28;20094;-62
2021/09/27 12:48:07;;;;;;;4.70;0.50;;;17.90;60.60;;;;;;4931924;29;20063;-62
2021/09/27 12:50:34;;;;;;;3.25;0.70;;;17.90;61.90;;;;;;4934336;29;20150;-62
2021/09/27 12:53:06;;;;;;;1.75;0.73;;;17.60;61.70;;;;;;4929200;29;20498;-62
2021/09/27 12:55:45;;;;;;;1.90;0.80;;;17.50;62.10;;;;;;4938321;29;20150;-62
2021/09/27 12:58:35;;;;;;;2.38;0.57;;;17.30;63.40;;;;;;4933296;29;20109;-62
2021/09/27 13:01:04;;;;;;;0.88;0.43;;;17.40;63.60;;;;;;4930983;28;20051;-62
2021/09/27 13:03:31;;;;;;;3.60;0.70;;;18.00;65.20;;;;;;4930614;29;20083;-62
2021/09/27 13:06:13;;;;;;;2.25;0.90;;;18.60;63.10;;;;;;4937639;28;20197;-62
2021/09/27 13:08:41;;;;;;;1.23;0.50;;;18.80;61.30;;;;;;4937819;29;20118;-62
2021/09/27 13:11:28;;;;;;;0.75;0.60;;;19.20;61.50;;;;;;4940672;29;20633;-62
2021/09/27 13:13:59;;;;;;;1.15;0.60;;;19.50;60.00;;;;;;4930958;29;20251;-62
2021/09/27 13:16:34;;;;;;;3.38;0.70;;;19.20;58.30;;;;;;4940060;29;20670;-64
2021/09/27 13:19:01;;;;;;;2.00;0.80;;;19.20;58.20;;;;;;4942385;29;20055;-63
2021/09/27 13:21:35;;;;;;;1.63;0.90;;;19.60;58.40;;;;;;4941201;28;20134;-62
2021/09/27 13:24:11;;;;;;;1.10;0.47;;;19.90;55.10;;;;;;4932051;28;20679;-62
2021/09/27 13:27:01;;;;;;;0.77;0.50;;;20.20;54.30;;;;;;4942609;28;20682;-62
2021/09/27 13:29:36;;;;;;;4.28;0.57;;;20.10;54.70;;;;;;4937998;29;20086;-62
2021/09/27 13:32:11;;;;;;;0.63;0.50;;;20.00;53.60;;;;;;4941026;29;20507;-62
2021/09/27 13:34:41;;;;;;;1.60;0.80;;;19.60;55.00;;;;;;4941304;28;20409;-62
2021/09/27 13:37:43;;;;;;;1.38;0.63;;;19.80;54.70;;;;;;4940240;29;20398;-63